DLHJ79 EDDS-EDDP
Flight info
| Callsign | DLHJ79 |
|---|---|
| Flight time | 0h 38m |
| Altitude | 33000 |
| Route | OKIBA4B OKIBA N851 RIMKI Z99 LOHRE N746 TIKNI T279 TAMEB T955 GOXLI GOXLI1R |
| Aircraft | A321/M-SDE3FGHIRWY/LB1 |
Departure
| Time | 2026-05-07 18:13 |
|---|---|
| Airport | Stuttgart Airport (EDDS) |
Arrival
| Time | 2026-05-07 18:51 |
|---|---|
| Airport | Leipzig/Halle Airport (EDDP) |
| Time | Latitude | Longitude | Altitude | Speed | Heading |
|---|---|---|---|---|---|
| 2026-05-07 17:45 | 48.68890 | 9.19433 | 1290 ft | 0 kts | 343° |
| 2026-05-07 18:00 | 48.68870 | 9.19441 | 1289 ft | 4 kts | 351° |
| 2026-05-07 18:00 | 48.68844 | 9.19444 | 1288 ft | 4 kts | 8° |
| 2026-05-07 18:00 | 48.68820 | 9.19432 | 1289 ft | 4 kts | 44° |
| 2026-05-07 18:01 | 48.68811 | 9.19414 | 1291 ft | 0 kts | 74° |
| 2026-05-07 18:03 | 48.68821 | 9.19465 | 1288 ft | 15 kts | 74° |
| 2026-05-07 18:03 | 48.68853 | 9.19633 | 1287 ft | 18 kts | 73° |
| 2026-05-07 18:04 | 48.68885 | 9.19814 | 1285 ft | 14 kts | 93° |
| 2026-05-07 18:04 | 48.68829 | 9.19918 | 1287 ft | 14 kts | 112° |
| 2026-05-07 18:04 | 48.68843 | 9.20062 | 1287 ft | 15 kts | 73° |
| 2026-05-07 18:04 | 48.68872 | 9.20220 | 1286 ft | 16 kts | 74° |
| 2026-05-07 18:05 | 48.68907 | 9.20390 | 1288 ft | 18 kts | 72° |
| 2026-05-07 18:05 | 48.68939 | 9.20574 | 1288 ft | 19 kts | 74° |
| 2026-05-07 18:05 | 48.68977 | 9.20771 | 1289 ft | 20 kts | 74° |
| 2026-05-07 18:05 | 48.69016 | 9.20980 | 1285 ft | 21 kts | 73° |
| 2026-05-07 18:06 | 48.69058 | 9.21197 | 1285 ft | 22 kts | 73° |
| 2026-05-07 18:06 | 48.69101 | 9.21424 | 1285 ft | 23 kts | 73° |
| 2026-05-07 18:06 | 48.69146 | 9.21660 | 1285 ft | 24 kts | 75° |
| 2026-05-07 18:06 | 48.69192 | 9.21903 | 1288 ft | 24 kts | 74° |
| 2026-05-07 18:07 | 48.69238 | 9.22152 | 1288 ft | 25 kts | 73° |
| 2026-05-07 18:07 | 48.69286 | 9.22403 | 1286 ft | 25 kts | 74° |
| 2026-05-07 18:07 | 48.69336 | 9.22664 | 1289 ft | 26 kts | 74° |
| 2026-05-07 18:07 | 48.69386 | 9.22929 | 1285 ft | 26 kts | 73° |
| 2026-05-07 18:08 | 48.69438 | 9.23199 | 1290 ft | 27 kts | 74° |
| 2026-05-07 18:08 | 48.69489 | 9.23473 | 1285 ft | 27 kts | 74° |
| 2026-05-07 18:08 | 48.69542 | 9.23751 | 1288 ft | 28 kts | 73° |
| 2026-05-07 18:08 | 48.69588 | 9.23986 | 1287 ft | 15 kts | 74° |
| 2026-05-07 18:09 | 48.69605 | 9.24151 | 1285 ft | 17 kts | 101° |
| 2026-05-07 18:09 | 48.69538 | 9.24296 | 1287 ft | 18 kts | 152° |
| 2026-05-07 18:09 | 48.69510 | 9.24310 | 1286 ft | 0 kts | 165° |
| 2026-05-07 18:11 | 48.69496 | 9.24316 | 1286 ft | 8 kts | 165° |
| 2026-05-07 18:11 | 48.69447 | 9.24332 | 1286 ft | 12 kts | 172° |
| 2026-05-07 18:11 | 48.69372 | 9.24224 | 1287 ft | 7 kts | 254° |
| 2026-05-07 18:11 | 48.69372 | 9.24222 | 1287 ft | 0 kts | 254° |
| 2026-05-07 18:12 | 48.69371 | 9.24221 | 1287 ft | 2 kts | 254° |
| 2026-05-07 18:12 | 48.69314 | 9.23914 | 1285 ft | 68 kts | 255° |
| 2026-05-07 18:12 | 48.69118 | 9.22880 | 1290 ft | 134 kts | 254° |
| 2026-05-07 18:12 | 48.68824 | 9.21271 | 1424 ft | 173 kts | 256° |
| 2026-05-07 18:13 | 48.68515 | 9.19493 | 2074 ft | 178 kts | 257° |
| 2026-05-07 18:13 | 48.68182 | 9.17652 | 2669 ft | 192 kts | 256° |
| 2026-05-07 18:13 | 48.67787 | 9.15638 | 3068 ft | 208 kts | 255° |
| 2026-05-07 18:13 | 48.67346 | 9.13442 | 3309 ft | 228 kts | 254° |
| 2026-05-07 18:14 | 48.67020 | 9.11019 | 3730 ft | 240 kts | 276° |
| 2026-05-07 18:14 | 48.67618 | 9.08678 | 4410 ft | 241 kts | 304° |
| 2026-05-07 18:14 | 48.68713 | 9.06747 | 5224 ft | 243 kts | 320° |
| 2026-05-07 18:14 | 48.70243 | 9.05559 | 5725 ft | 260 kts | 346° |
| 2026-05-07 18:15 | 48.72079 | 9.05515 | 6300 ft | 272 kts | 12° |
| 2026-05-07 18:15 | 48.73907 | 9.06358 | 6968 ft | 277 kts | 17° |
| 2026-05-07 18:15 | 48.75748 | 9.07306 | 7668 ft | 281 kts | 17° |
| 2026-05-07 18:15 | 48.77585 | 9.08280 | 8377 ft | 285 kts | 18° |
| 2026-05-07 18:16 | 48.79469 | 9.09287 | 9084 ft | 289 kts | 18° |
| 2026-05-07 18:16 | 48.81379 | 9.10305 | 9791 ft | 293 kts | 18° |
| 2026-05-07 18:16 | 48.83322 | 9.11337 | 10319 ft | 303 kts | 18° |
| 2026-05-07 18:16 | 48.85389 | 9.12430 | 10463 ft | 325 kts | 18° |
| 2026-05-07 18:17 | 48.87601 | 9.13597 | 10591 ft | 346 kts | 18° |
| 2026-05-07 18:17 | 48.89938 | 9.14830 | 10794 ft | 363 kts | 18° |
| 2026-05-07 18:17 | 48.92343 | 9.16101 | 11295 ft | 368 kts | 17° |
| 2026-05-07 18:17 | 48.94843 | 9.16999 | 11865 ft | 371 kts | 9° |
| 2026-05-07 18:18 | 48.97384 | 9.17717 | 12507 ft | 372 kts | 9° |
| 2026-05-07 18:18 | 48.99948 | 9.18421 | 13128 ft | 375 kts | 9° |
| 2026-05-07 18:18 | 49.02531 | 9.19125 | 13731 ft | 378 kts | 9° |
| 2026-05-07 18:18 | 49.05098 | 9.19830 | 14273 ft | 381 kts | 9° |
| 2026-05-07 18:19 | 49.07727 | 9.20556 | 14784 ft | 384 kts | 9° |
| 2026-05-07 18:19 | 49.10366 | 9.21288 | 15300 ft | 387 kts | 9° |
| 2026-05-07 18:19 | 49.13032 | 9.22031 | 15825 ft | 391 kts | 8° |
| 2026-05-07 18:19 | 49.15722 | 9.22778 | 16349 ft | 394 kts | 8° |
| 2026-05-07 18:20 | 49.18427 | 9.23535 | 16887 ft | 396 kts | 8° |
| 2026-05-07 18:20 | 49.21146 | 9.24302 | 17386 ft | 399 kts | 8° |
| 2026-05-07 18:20 | 49.23898 | 9.25074 | 17866 ft | 402 kts | 8° |
| 2026-05-07 18:20 | 49.26658 | 9.25846 | 18335 ft | 405 kts | 8° |
| 2026-05-07 18:21 | 49.29444 | 9.26625 | 18758 ft | 408 kts | 8° |
| 2026-05-07 18:21 | 49.32210 | 9.27399 | 19183 ft | 410 kts | 8° |
| 2026-05-07 18:21 | 49.35026 | 9.28185 | 19609 ft | 412 kts | 8° |
| 2026-05-07 18:21 | 49.37866 | 9.28978 | 20059 ft | 414 kts | 8° |
| 2026-05-07 18:22 | 49.40708 | 9.29777 | 20523 ft | 416 kts | 8° |
| 2026-05-07 18:22 | 49.42600 | 9.30310 | 20822 ft | 417 kts | 8° |
| 2026-05-07 18:22 | 49.46429 | 9.31391 | 21404 ft | 420 kts | 8° |
| 2026-05-07 18:22 | 49.49311 | 9.32206 | 21835 ft | 422 kts | 8° |
| 2026-05-07 18:23 | 49.52206 | 9.33027 | 22264 ft | 424 kts | 8° |
| 2026-05-07 18:23 | 49.55114 | 9.33853 | 22685 ft | 426 kts | 8° |
| 2026-05-07 18:23 | 49.58049 | 9.34685 | 23100 ft | 429 kts | 8° |
| 2026-05-07 18:23 | 49.60991 | 9.35518 | 23521 ft | 431 kts | 9° |
| 2026-05-07 18:24 | 49.63951 | 9.36362 | 23880 ft | 433 kts | 9° |
| 2026-05-07 18:24 | 49.66919 | 9.37211 | 24239 ft | 434 kts | 9° |
| 2026-05-07 18:24 | 49.69863 | 9.38053 | 24578 ft | 436 kts | 9° |
| 2026-05-07 18:24 | 49.72849 | 9.38946 | 24920 ft | 439 kts | 12° |
| 2026-05-07 18:25 | 49.75696 | 9.40679 | 25252 ft | 444 kts | 28° |
| 2026-05-07 18:25 | 49.78216 | 9.43486 | 25579 ft | 448 kts | 37° |
| 2026-05-07 18:25 | 49.80662 | 9.46492 | 25923 ft | 449 kts | 37° |
| 2026-05-07 18:25 | 49.83117 | 9.49523 | 26270 ft | 451 kts | 37° |
| 2026-05-07 18:26 | 49.85568 | 9.52560 | 26604 ft | 453 kts | 37° |
| 2026-05-07 18:26 | 49.88036 | 9.55620 | 26910 ft | 455 kts | 37° |
| 2026-05-07 18:26 | 49.90513 | 9.58689 | 27220 ft | 457 kts | 37° |
| 2026-05-07 18:26 | 49.93006 | 9.61767 | 27511 ft | 459 kts | 37° |
| 2026-05-07 18:27 | 49.95505 | 9.64848 | 27792 ft | 460 kts | 37° |
| 2026-05-07 18:27 | 49.98019 | 9.67953 | 28053 ft | 462 kts | 37° |
| 2026-05-07 18:27 | 50.00539 | 9.71071 | 28317 ft | 464 kts | 37° |
| 2026-05-07 18:27 | 50.02206 | 9.73136 | 28512 ft | 464 kts | 37° |
| 2026-05-07 18:28 | 50.05579 | 9.77330 | 29004 ft | 463 kts | 37° |
| 2026-05-07 18:28 | 50.08088 | 9.80459 | 29378 ft | 461 kts | 37° |
| 2026-05-07 18:28 | 50.10593 | 9.83586 | 29749 ft | 460 kts | 37° |
| 2026-05-07 18:28 | 50.13089 | 9.86701 | 30105 ft | 459 kts | 37° |
| 2026-05-07 18:29 | 50.15579 | 9.89818 | 30415 ft | 459 kts | 37° |
| 2026-05-07 18:29 | 50.18038 | 9.92902 | 30701 ft | 458 kts | 37° |
| 2026-05-07 18:29 | 50.20523 | 9.96027 | 30973 ft | 458 kts | 37° |
| 2026-05-07 18:29 | 50.23007 | 9.99155 | 31251 ft | 458 kts | 37° |
| 2026-05-07 18:30 | 50.25484 | 10.02278 | 31541 ft | 457 kts | 37° |
| 2026-05-07 18:30 | 50.27959 | 10.05395 | 31814 ft | 457 kts | 37° |
| 2026-05-07 18:30 | 50.30433 | 10.08512 | 32079 ft | 457 kts | 37° |
| 2026-05-07 18:30 | 50.32910 | 10.11632 | 32346 ft | 457 kts | 37° |
| 2026-05-07 18:31 | 50.35385 | 10.14758 | 32606 ft | 457 kts | 38° |
| 2026-05-07 18:31 | 50.37859 | 10.17891 | 32852 ft | 457 kts | 38° |
| 2026-05-07 18:31 | 50.39497 | 10.19970 | 33007 ft | 457 kts | 38° |
| 2026-05-07 18:32 | 50.44414 | 10.26231 | 32867 ft | 454 kts | 38° |
| 2026-05-07 18:32 | 50.47664 | 10.30374 | 31975 ft | 453 kts | 38° |
| 2026-05-07 18:32 | 50.49320 | 10.32486 | 31536 ft | 453 kts | 38° |
| 2026-05-07 18:32 | 50.51762 | 10.35608 | 30907 ft | 453 kts | 38° |
| 2026-05-07 18:33 | 50.54205 | 10.38734 | 30282 ft | 453 kts | 38° |
| 2026-05-07 18:33 | 50.56627 | 10.41835 | 29587 ft | 454 kts | 38° |
| 2026-05-07 18:33 | 50.59080 | 10.44978 | 28873 ft | 455 kts | 37° |
| 2026-05-07 18:33 | 50.61527 | 10.48109 | 28177 ft | 450 kts | 38° |
| 2026-05-07 18:34 | 50.63935 | 10.51201 | 27364 ft | 448 kts | 38° |
| 2026-05-07 18:34 | 50.66374 | 10.54343 | 26152 ft | 457 kts | 38° |
| 2026-05-07 18:34 | 50.68837 | 10.57519 | 25381 ft | 454 kts | 38° |
| 2026-05-07 18:34 | 50.71272 | 10.60668 | 24673 ft | 451 kts | 38° |
| 2026-05-07 18:35 | 50.73692 | 10.63800 | 23983 ft | 447 kts | 39° |
| 2026-05-07 18:35 | 50.76085 | 10.66909 | 23244 ft | 444 kts | 39° |
| 2026-05-07 18:35 | 50.78453 | 10.70005 | 22476 ft | 439 kts | 40° |
| 2026-05-07 18:35 | 50.80562 | 10.73365 | 21752 ft | 435 kts | 49° |
| 2026-05-07 18:36 | 50.82345 | 10.77203 | 21031 ft | 431 kts | 57° |
| 2026-05-07 18:36 | 50.83862 | 10.81263 | 20365 ft | 427 kts | 59° |
| 2026-05-07 18:36 | 50.85362 | 10.85313 | 20118 ft | 426 kts | 59° |
| 2026-05-07 18:36 | 50.86860 | 10.89349 | 19955 ft | 423 kts | 58° |
| 2026-05-07 18:37 | 50.88341 | 10.93336 | 19289 ft | 418 kts | 58° |
| 2026-05-07 18:37 | 50.89810 | 10.97294 | 18607 ft | 415 kts | 58° |
| 2026-05-07 18:37 | 50.91260 | 11.01217 | 17889 ft | 411 kts | 59° |
| 2026-05-07 18:37 | 50.92865 | 11.04934 | 17187 ft | 405 kts | 47° |
| 2026-05-07 18:38 | 50.94799 | 11.08153 | 16492 ft | 400 kts | 45° |
| 2026-05-07 18:38 | 50.96738 | 11.11296 | 15812 ft | 397 kts | 44° |
| 2026-05-07 18:38 | 50.98687 | 11.14361 | 15147 ft | 392 kts | 39° |
| 2026-05-07 18:38 | 51.00822 | 11.16929 | 14511 ft | 388 kts | 35° |
| 2026-05-07 18:39 | 51.03003 | 11.19417 | 13865 ft | 384 kts | 34° |
| 2026-05-07 18:39 | 51.05167 | 11.21882 | 13194 ft | 379 kts | 34° |
| 2026-05-07 18:39 | 51.07296 | 11.24308 | 12521 ft | 374 kts | 34° |
| 2026-05-07 18:39 | 51.09398 | 11.26710 | 11853 ft | 370 kts | 34° |
| 2026-05-07 18:40 | 51.11476 | 11.29092 | 11203 ft | 366 kts | 34° |
| 2026-05-07 18:40 | 51.13535 | 11.31459 | 10670 ft | 364 kts | 34° |
| 2026-05-07 18:40 | 51.15574 | 11.33809 | 10132 ft | 358 kts | 34° |
| 2026-05-07 18:40 | 51.17572 | 11.36121 | 9562 ft | 351 kts | 34° |
| 2026-05-07 18:41 | 51.19485 | 11.38340 | 8979 ft | 336 kts | 34° |
| 2026-05-07 18:41 | 51.21342 | 11.40499 | 8406 ft | 323 kts | 34° |
| 2026-05-07 18:41 | 51.23117 | 11.42567 | 7852 ft | 311 kts | 35° |
| 2026-05-07 18:41 | 51.24837 | 11.44576 | 7297 ft | 302 kts | 34° |
| 2026-05-07 18:42 | 51.26513 | 11.46523 | 6761 ft | 294 kts | 34° |
| 2026-05-07 18:42 | 51.28011 | 11.48657 | 6201 ft | 287 kts | 52° |
| 2026-05-07 18:42 | 51.29051 | 11.51344 | 5626 ft | 282 kts | 59° |
| 2026-05-07 18:42 | 51.30004 | 11.54065 | 5055 ft | 277 kts | 60° |
| 2026-05-07 18:43 | 51.30942 | 11.56727 | 4480 ft | 272 kts | 59° |
| 2026-05-07 18:43 | 51.31870 | 11.59343 | 3913 ft | 269 kts | 59° |
| 2026-05-07 18:43 | 51.32786 | 11.61920 | 3369 ft | 265 kts | 60° |
| 2026-05-07 18:43 | 51.33673 | 11.64412 | 3043 ft | 253 kts | 60° |
| 2026-05-07 18:44 | 51.34513 | 11.66873 | 3026 ft | 252 kts | 65° |
| 2026-05-07 18:44 | 51.35157 | 11.69502 | 3032 ft | 254 kts | 69° |
| 2026-05-07 18:44 | 51.35748 | 11.72162 | 3026 ft | 252 kts | 69° |
| 2026-05-07 18:44 | 51.36305 | 11.74713 | 3021 ft | 231 kts | 69° |
| 2026-05-07 18:45 | 51.36800 | 11.77019 | 3016 ft | 208 kts | 70° |
| 2026-05-07 18:45 | 51.37249 | 11.79110 | 3016 ft | 198 kts | 70° |
| 2026-05-07 18:45 | 51.37699 | 11.81189 | 3028 ft | 200 kts | 70° |
| 2026-05-07 18:45 | 51.38187 | 11.83438 | 3038 ft | 220 kts | 70° |
| 2026-05-07 18:46 | 51.38687 | 11.85773 | 3031 ft | 223 kts | 69° |
| 2026-05-07 18:46 | 51.39193 | 11.88120 | 3020 ft | 223 kts | 70° |
| 2026-05-07 18:46 | 51.39626 | 11.90500 | 3028 ft | 224 kts | 78° |
| 2026-05-07 18:46 | 51.39826 | 11.92980 | 3028 ft | 225 kts | 83° |
| 2026-05-07 18:47 | 51.39952 | 11.95475 | 3026 ft | 225 kts | 84° |
| 2026-05-07 18:47 | 51.40072 | 11.97956 | 3022 ft | 218 kts | 84° |
| 2026-05-07 18:47 | 51.40185 | 12.00280 | 2937 ft | 203 kts | 84° |
| 2026-05-07 18:47 | 51.40293 | 12.02499 | 2716 ft | 196 kts | 83° |
| 2026-05-07 18:48 | 51.40399 | 12.04658 | 2461 ft | 192 kts | 83° |
| 2026-05-07 18:48 | 51.40501 | 12.06741 | 2211 ft | 189 kts | 84° |
| 2026-05-07 18:48 | 51.40602 | 12.08821 | 1954 ft | 185 kts | 84° |
| 2026-05-07 18:48 | 51.40699 | 12.10838 | 1718 ft | 176 kts | 84° |
| 2026-05-07 18:49 | 51.40787 | 12.12683 | 1472 ft | 158 kts | 84° |
| 2026-05-07 18:49 | 51.40868 | 12.14371 | 1245 ft | 147 kts | 84° |
| 2026-05-07 18:49 | 51.40946 | 12.15989 | 1040 ft | 144 kts | 84° |
| 2026-05-07 18:49 | 51.41025 | 12.17587 | 843 ft | 143 kts | 83° |
| 2026-05-07 18:50 | 51.41100 | 12.19172 | 673 ft | 143 kts | 84° |
| 2026-05-07 18:50 | 51.41176 | 12.20754 | 478 ft | 142 kts | 82° |
| 2026-05-07 18:50 | 51.41243 | 12.22171 | 456 ft | 108 kts | 86° |
| 2026-05-07 18:50 | 51.41284 | 12.23095 | 464 ft | 58 kts | 86° |
| 2026-05-07 18:51 | 51.41308 | 12.23603 | 467 ft | 41 kts | 85° |
| 2026-05-07 18:51 | 51.41329 | 12.24040 | 469 ft | 39 kts | 85° |
| 2026-05-07 18:51 | 51.41350 | 12.24416 | 470 ft | 20 kts | 77° |
| 2026-05-07 18:51 | 51.41441 | 12.24512 | 474 ft | 0 kts | 13° |
| 2026-05-07 18:52 | 51.41458 | 12.24518 | 475 ft | 8 kts | 13° |
| 2026-05-07 18:52 | 51.41552 | 12.24554 | 474 ft | 17 kts | 12° |
| 2026-05-07 18:53 | 51.41573 | 12.24562 | 474 ft | 0 kts | 13° |
| 2026-05-07 18:54 | 51.41610 | 12.24574 | 474 ft | 10 kts | 354° |
| 2026-05-07 18:54 | 51.41649 | 12.24485 | 474 ft | 11 kts | 276° |
| 2026-05-07 18:54 | 51.41647 | 12.24352 | 474 ft | 15 kts | 267° |
| 2026-05-07 18:54 | 51.41637 | 12.24137 | 474 ft | 24 kts | 266° |
| 2026-05-07 18:55 | 51.41628 | 12.23865 | 469 ft | 25 kts | 263° |
| 2026-05-07 18:55 | 51.41610 | 12.23579 | 465 ft | 26 kts | 265° |
| 2026-05-07 18:55 | 51.41599 | 12.23290 | 464 ft | 26 kts | 270° |
| 2026-05-07 18:55 | 51.41635 | 12.23017 | 464 ft | 25 kts | 285° |
| 2026-05-07 18:56 | 51.41680 | 12.22754 | 463 ft | 24 kts | 287° |
| 2026-05-07 18:56 | 51.41729 | 12.22484 | 458 ft | 26 kts | 288° |
| 2026-05-07 18:56 | 51.41777 | 12.22191 | 450 ft | 28 kts | 286° |
| 2026-05-07 18:56 | 51.41831 | 12.21880 | 440 ft | 30 kts | 285° |
| 2026-05-07 18:57 | 51.41882 | 12.21583 | 427 ft | 20 kts | 287° |
| 2026-05-07 18:57 | 51.41909 | 12.21476 | 425 ft | 6 kts | 314° |
| 2026-05-07 18:57 | 51.41950 | 12.21443 | 428 ft | 7 kts | 355° |
| 2026-05-07 18:57 | 51.42002 | 12.21474 | 434 ft | 9 kts | 37° |
| 2026-05-07 18:58 | 51.42052 | 12.21503 | 433 ft | 0 kts | 13° |